Time;durP1;ratioP1;P1;durP2;ratioP2;P2;SDS_P1;SDS_P2;PMS_P1;PMS_P2;Temp;Humidity;BMP_temperature;BMP_pressure;BME280_temperature;BME280_humidity;BME280_pressure;Samples;Min_cycle;Max_cycle;Signal;HPM_P1;HPM_P2
2023/05/05 02:18:07;;;;;;;16.02;11.40;;;;;;;;;;10256668;28;20088;-71
2023/05/05 02:23:06;;;;;;;15.23;11.00;;;;;;;;;;10295419;28;20068;-71
2023/05/05 02:28:05;;;;;;;14.43;10.32;;;;;;;;;;10300310;28;20067;-72
2023/05/05 02:33:06;;;;;;;13.40;10.80;;;;;;;;;;10297474;28;20068;-72
2023/05/05 02:38:09;;;;;;;17.33;10.60;;;;;;;;;;10297722;28;20186;-71
2023/05/05 02:43:11;;;;;;;12.50;11.20;;;;;;;;;;10297600;28;20095;-72
2023/05/05 02:48:11;;;;;;;11.70;10.50;;;;;;;;;;10296273;28;20114;-71
2023/05/05 02:53:11;;;;;;;15.57;10.98;;;;;;;;;;10295687;28;20085;-72
2023/05/05 02:58:14;;;;;;;14.90;11.45;;;;;;;;;;10296978;28;20087;-71
2023/05/05 03:03:18;;;;;;;14.68;13.18;;;;;;;;;;10293732;28;20091;-71
2023/05/05 03:08:26;;;;;;;19.25;12.23;;;;;;;;;;10293213;28;20406;-72
2023/05/05 03:13:26;;;;;;;12.00;10.80;;;;;;;;;;10296650;28;20082;-71
2023/05/05 03:18:25;;;;;;;17.20;11.70;;;;;;;;;;10303158;28;20076;-71
2023/05/05 03:23:31;;;;;;;16.00;11.98;;;;;;;;;;10302566;28;20076;-72
2023/05/05 03:28:30;;;;;;;19.15;12.68;;;;;;;;;;10301849;28;20530;-72
2023/05/05 03:33:32;;;;;;;18.55;11.73;;;;;;;;;;10301738;28;20374;-72
2023/05/05 03:38:33;;;;;;;15.90;11.43;;;;;;;;;;10306132;28;20080;-72
2023/05/05 03:43:31;;;;;;;14.90;12.07;;;;;;;;;;10302200;28;20072;-72
2023/05/05 03:48:30;;;;;;;17.63;12.15;;;;;;;;;;10302998;28;20076;-72
2023/05/05 03:53:28;;;;;;;22.38;12.90;;;;;;;;;;10300338;28;20080;-72
2023/05/05 03:58:28;;;;;;;14.95;13.27;;;;;;;;;;10304594;28;20521;-75
2023/05/05 04:03:27;;;;;;;19.95;13.18;;;;;;;;;;10301338;28;20516;-72
2023/05/05 04:08:25;;;;;;;17.48;13.38;;;;;;;;;;10300942;28;20181;-72
2023/05/05 04:13:24;;;;;;;20.83;13.02;;;;;;;;;;10297300;28;20088;-72
2023/05/05 04:18:23;;;;;;;17.02;13.20;;;;;;;;;;10300135;28;20087;-73
2023/05/05 04:23:22;;;;;;;19.70;13.50;;;;;;;;;;10290985;28;20075;-72
2023/05/05 04:28:21;;;;;;;18.48;14.40;;;;;;;;;;10295315;28;20494;-71
2023/05/05 04:33:19;;;;;;;19.35;14.20;;;;;;;;;;10302071;28;20080;-73
2023/05/05 04:38:21;;;;;;;15.43;13.45;;;;;;;;;;10298125;28;20466;-72
2023/05/05 04:43:33;;;;;;;16.35;12.15;;;;;;;;;;10307768;28;20075;-72
2023/05/05 04:48:31;;;;;;;15.13;13.52;;;;;;;;;;10297983;28;20079;-72
2023/05/05 04:53:31;;;;;;;20.73;13.77;;;;;;;;;;10293771;28;20087;-72
2023/05/05 04:58:29;;;;;;;19.45;14.20;;;;;;;;;;10289308;28;20522;-71
2023/05/05 05:03:28;;;;;;;14.80;13.23;;;;;;;;;;10287935;28;20088;-71
2023/05/05 05:08:26;;;;;;;15.88;13.40;;;;;;;;;;10301330;28;20080;-71
2023/05/05 05:13:26;;;;;;;17.33;13.63;;;;;;;;;;10299345;28;20076;-74
2023/05/05 05:18:24;;;;;;;22.83;19.75;;;;;;;;;;10298121;28;20072;-75
2023/05/05 05:23:25;;;;;;;24.15;16.65;;;;;;;;;;10297813;28;20472;-74
2023/05/05 05:28:24;;;;;;;37.25;25.92;;;;;;;;;;10298230;28;20067;-75
2023/05/05 05:33:29;;;;;;;19.13;17.23;;;;;;;;;;10292177;28;20510;-75
2023/05/05 05:38:29;;;;;;;33.72;21.88;;;;;;;;;;10298233;28;20073;-75
2023/05/05 05:43:30;;;;;;;16.75;14.70;;;;;;;;;;10293394;28;20076;-75
2023/05/05 05:48:30;;;;;;;16.52;12.05;;;;;;;;;;10290176;28;20060;-74
2023/05/05 05:53:29;;;;;;;14.65;13.10;;;;;;;;;;10297364;28;20997;-76
2023/05/05 05:58:28;;;;;;;15.57;13.35;;;;;;;;;;10296546;28;20064;-76
2023/05/05 06:03:26;;;;;;;20.00;15.15;;;;;;;;;;10303349;28;20083;-73
2023/05/05 06:08:27;;;;;;;25.10;16.38;;;;;;;;;;10302022;28;20080;-72
2023/05/05 06:13:27;;;;;;;16.00;13.88;;;;;;;;;;10304900;28;20080;-72
2023/05/05 06:18:25;;;;;;;18.38;14.88;;;;;;;;;;10295031;28;20521;-73
2023/05/05 06:23:28;;;;;;;18.75;14.68;;;;;;;;;;10296572;28;20900;-71
2023/05/05 06:28:31;;;;;;;;;;;;;;;;;;10295058;28;20528;-72
2023/05/05 06:33:29;;;;;;;17.67;15.85;;;;;;;;;;10303658;28;19956;-73
2023/05/05 06:38:29;;;;;;;21.80;16.00;;;;;;;;;;10284334;28;20744;-71
2023/05/05 06:43:28;;;;;;;21.02;14.20;;;;;;;;;;10287026;28;20073;-72
2023/05/05 06:48:29;;;;;;;19.52;15.48;;;;;;;;;;10300217;28;20084;-72
2023/05/05 06:53:29;;;;;;;17.58;14.20;;;;;;;;;;10291757;28;20489;-72
2023/05/05 06:58:27;;;;;;;18.35;15.35;;;;;;;;;;10296991;28;20129;-71
2023/05/05 07:03:26;;;;;;;57.10;51.88;;;;;;;;;;10298922;28;20072;-72
2023/05/05 07:08:25;;;;;;;19.73;17.67;;;;;;;;;;10301488;28;20076;-72
2023/05/05 07:13:24;;;;;;;38.55;35.00;;;;;;;;;;10302323;28;20073;-71
2023/05/05 07:18:23;;;;;;;19.88;15.85;;;;;;;;;;10299786;28;20409;-72
2023/05/05 07:23:21;;;;;;;16.10;13.20;;;;;;;;;;10296753;28;20067;-72
2023/05/05 07:28:21;;;;;;;16.67;14.30;;;;;;;;;;10301492;28;20036;-71
2023/05/05 07:33:20;;;;;;;14.52;12.38;;;;;;;;;;10300309;28;20080;-72
2023/05/05 07:38:18;;;;;;;13.32;12.02;;;;;;;;;;10302050;28;20060;-72
2023/05/05 07:43:16;;;;;;;14.50;12.13;;;;;;;;;;10299683;28;20079;-71
2023/05/05 07:48:15;;;;;;;16.08;11.60;;;;;;;;;;10299997;28;20569;-71
2023/05/05 07:53:15;;;;;;;14.00;10.55;;;;;;;;;;10299651;28;20068;-72
2023/05/05 07:58:13;;;;;;;13.57;11.95;;;;;;;;;;10300767;28;20069;-72
2023/05/05 08:03:11;;;;;;;11.70;10.55;;;;;;;;;;10298500;28;20067;-71
2023/05/05 08:08:10;;;;;;;12.38;10.95;;;;;;;;;;10300403;28;20064;-72
2023/05/05 08:13:09;;;;;;;17.52;12.25;;;;;;;;;;10300021;28;20048;-72
2023/05/05 08:18:07;;;;;;;13.75;9.77;;;;;;;;;;10299702;28;20080;-72
2023/05/05 08:23:06;;;;;;;12.20;11.00;;;;;;;;;;10300374;28;20444;-72
2023/05/05 08:28:04;;;;;;;13.23;11.57;;;;;;;;;;10293279;28;20467;-72
2023/05/05 08:33:04;;;;;;;13.15;11.95;;;;;;;;;;10299565;28;21150;-72
2023/05/05 08:38:02;;;;;;;12.27;10.70;;;;;;;;;;10298794;28;20544;-72
2023/05/05 08:43:00;;;;;;;15.82;12.15;;;;;;;;;;10298433;28;20074;-72
2023/05/05 08:48:01;;;;;;;14.35;12.85;;;;;;;;;;10296292;28;20069;-71
2023/05/05 08:53:07;;;;;;;14.15;11.75;;;;;;;;;;10296288;28;20103;-72
2023/05/05 08:58:06;;;;;;;21.35;13.38;;;;;;;;;;10297733;28;20490;-72
2023/05/05 09:03:04;;;;;;;13.80;12.43;;;;;;;;;;10294518;28;20067;-72
2023/05/05 09:08:07;;;;;;;13.80;12.57;;;;;;;;;;10295759;28;20092;-72
2023/05/05 09:13:05;;;;;;;23.75;21.17;;;;;;;;;;10291467;28;20068;-71
2023/05/05 09:18:05;;;;;;;13.95;12.48;;;;;;;;;;10297624;28;20096;-72
2023/05/05 09:23:12;;;;;;;14.85;13.02;;;;;;;;;;10296330;28;20076;-72
2023/05/05 09:28:11;;;;;;;16.73;14.02;;;;;;;;;;10292120;28;20078;-72
2023/05/05 09:33:13;;;;;;;15.23;13.05;;;;;;;;;;10295441;28;20069;-72
2023/05/05 09:38:12;;;;;;;14.48;12.32;;;;;;;;;;10296281;28;20080;-71
2023/05/05 09:43:12;;;;;;;15.35;13.68;;;;;;;;;;10296709;28;20072;-72
2023/05/05 09:48:23;;;;;;;13.88;12.32;;;;;;;;;;10294773;28;20072;-71
2023/05/05 09:53:25;;;;;;;16.30;13.13;;;;;;;;;;10295251;28;20123;-72
2023/05/05 09:58:24;;;;;;;16.88;14.35;;;;;;;;;;10295197;28;20488;-72
2023/05/05 10:03:23;;;;;;;13.07;11.85;;;;;;;;;;10295513;28;20072;-72
2023/05/05 10:08:22;;;;;;;12.50;11.35;;;;;;;;;;10294819;28;20065;-72
2023/05/05 10:13:23;;;;;;;13.32;12.02;;;;;;;;;;10295322;28;20064;-72
2023/05/05 10:18:21;;;;;;;13.45;12.05;;;;;;;;;;10296667;28;20076;-71
2023/05/05 10:23:22;;;;;;;14.77;10.93;;;;;;;;;;10293976;28;20442;-72
2023/05/05 10:28:25;;;;;;;12.27;10.23;;;;;;;;;;10302216;28;20127;-72
2023/05/05 10:33:29;;;;;;;12.00;10.73;;;;;;;;;;10301246;28;20065;-72
2023/05/05 10:38:30;;;;;;;12.82;11.45;;;;;;;;;;10303706;28;20080;-72
2023/05/05 10:43:30;;;;;;;11.95;10.05;;;;;;;;;;10302107;28;20077;-71
2023/05/05 10:48:32;;;;;;;11.88;10.70;;;;;;;;;;10302645;28;20076;-71
2023/05/05 10:53:36;;;;;;;12.82;11.45;;;;;;;;;;10302075;28;20080;-72
2023/05/05 10:58:36;;;;;;;14.95;9.68;;;;;;;;;;10300440;28;20072;-71
2023/05/05 11:04:13;;;;;;;12.43;11.00;;;;;;;;;;10301242;28;20076;-72
2023/05/05 11:09:26;;;;;;;13.30;10.43;;;;;;;;;;10303103;28;20072;-72
2023/05/05 11:14:26;;;;;;;14.18;11.13;;;;;;;;;;10300006;28;20084;-72
2023/05/05 11:19:43;;;;;;;11.98;10.10;;;;;;;;;;10302093;28;20076;-72
2023/05/05 11:24:41;;;;;;;15.30;10.60;;;;;;;;;;10301027;28;20502;-71
2023/05/05 11:29:58;;;;;;;11.60;9.60;;;;;;;;;;10296087;28;20071;-72
2023/05/05 11:34:57;;;;;;;11.23;9.80;;;;;;;;;;10301667;28;20080;-72
2023/05/05 11:40:01;;;;;;;10.77;9.77;;;;;;;;;;10299055;28;20071;-72
2023/05/05 11:45:00;;;;;;;14.68;9.82;;;;;;;;;;10298410;28;20650;-72
2023/05/05 11:50:16;;;;;;;16.70;10.90;;;;;;;;;;10300364;28;20072;-72
2023/05/05 11:55:19;;;;;;;16.98;10.65;;;;;;;;;;10299748;28;20494;-72
2023/05/05 12:00:17;;;;;;;12.20;9.13;;;;;;;;;;10295527;28;20081;-73
2023/05/05 12:05:21;;;;;;;10.95;8.63;;;;;;;;;;10300190;28;20083;-71
2023/05/05 12:10:22;;;;;;;11.70;8.88;;;;;;;;;;10301157;28;20072;-71
2023/05/05 12:15:27;;;;;;;8.50;7.75;;;;;;;;;;10300021;28;20080;-72
2023/05/05 12:20:31;;;;;;;10.15;8.60;;;;;;;;;;10299411;28;20084;-71
2023/05/05 12:25:34;;;;;;;9.75;8.73;;;;;;;;;;10296820;28;20072;-72
2023/05/05 12:30:33;;;;;;;12.20;9.30;;;;;;;;;;10298034;28;20148;-73
2023/05/05 12:35:32;;;;;;;10.48;8.35;;;;;;;;;;10296950;28;20084;-72
2023/05/05 12:40:43;;;;;;;15.55;9.52;;;;;;;;;;10298692;28;20201;-72
2023/05/05 12:45:42;;;;;;;10.60;8.95;;;;;;;;;;10300160;28;20071;-77
2023/05/05 12:50:41;;;;;;;10.68;9.02;;;;;;;;;;10298410;28;20068;-77
2023/05/05 12:55:40;;;;;;;9.65;8.70;;;;;;;;;;10297346;28;20067;-72
2023/05/05 13:00:38;;;;;;;12.02;8.40;;;;;;;;;;10298231;28;20080;-72
2023/05/05 13:05:36;;;;;;;9.18;7.43;;;;;;;;;;10297554;28;20060;-72
2023/05/05 13:10:36;;;;;;;8.07;7.18;;;;;;;;;;10297907;28;20076;-73
2023/05/05 13:15:35;;;;;;;10.15;6.88;;;;;;;;;;10295221;28;20083;-72
2023/05/05 13:20:33;;;;;;;8.60;6.90;;;;;;;;;;10297287;28;20079;-73
2023/05/05 13:25:31;;;;;;;9.63;6.38;;;;;;;;;;10297385;28;20071;-73
2023/05/05 13:30:31;;;;;;;13.32;6.50;;;;;;;;;;10295790;28;20094;-73
2023/05/05 13:35:29;;;;;;;13.63;7.65;;;;;;;;;;10297083;28;20081;-73
2023/05/05 13:40:27;;;;;;;13.95;7.38;;;;;;;;;;10296191;28;20079;-72
2023/05/05 13:45:25;;;;;;;7.82;5.90;;;;;;;;;;10296974;28;20094;-72
2023/05/05 13:50:25;;;;;;;7.22;5.60;;;;;;;;;;10295650;28;20142;-72
2023/05/05 13:55:23;;;;;;;11.10;6.05;;;;;;;;;;10289160;28;20466;-77
2023/05/05 14:00:22;;;;;;;9.95;5.78;;;;;;;;;;10291900;28;20450;-71
2023/05/05 14:05:20;;;;;;;6.25;5.43;;;;;;;;;;10295265;28;20497;-71
2023/05/05 14:10:20;;;;;;;9.88;5.28;;;;;;;;;;10296150;28;20072;-72
2023/05/05 14:15:18;;;;;;;7.57;6.05;;;;;;;;;;10295189;28;20064;-72
2023/05/05 14:20:16;;;;;;;11.77;6.60;;;;;;;;;;10296146;28;20098;-73
2023/05/05 14:25:14;;;;;;;8.57;5.25;;;;;;;;;;10293341;28;20071;-72
2023/05/05 14:30:14;;;;;;;6.20;5.15;;;;;;;;;;10293834;28;20072;-72
2023/05/05 14:35:13;;;;;;;6.82;4.70;;;;;;;;;;10295248;28;20072;-71
2023/05/05 14:40:11;;;;;;;9.10;5.15;;;;;;;;;;10295412;28;20064;-72
2023/05/05 14:45:09;;;;;;;8.65;5.35;;;;;;;;;;10296097;28;20091;-72
2023/05/05 14:50:10;;;;;;;8.45;5.25;;;;;;;;;;10295293;28;20107;-72
2023/05/05 14:55:08;;;;;;;6.40;4.28;;;;;;;;;;10295450;28;20064;-72
2023/05/05 15:00:08;;;;;;;5.28;4.65;;;;;;;;;;10294766;28;20065;-72
2023/05/05 15:05:06;;;;;;;7.65;6.32;;;;;;;;;;10296234;28;20084;-72
2023/05/05 15:10:07;;;;;;;12.60;6.80;;;;;;;;;;10293609;28;20419;-72
2023/05/05 15:15:07;;;;;;;8.20;5.32;;;;;;;;;;10302111;28;20454;-71
2023/05/05 15:20:06;;;;;;;8.80;5.72;;;;;;;;;;10300834;28;20095;-72
2023/05/05 15:25:08;;;;;;;8.48;5.68;;;;;;;;;;10302003;28;20068;-72
2023/05/05 15:30:13;;;;;;;8.93;6.50;;;;;;;;;;10301336;28;20068;-72
2023/05/05 15:35:11;;;;;;;7.20;6.18;;;;;;;;;;10298462;28;20060;-72
2023/05/05 15:40:10;;;;;;;9.43;6.65;;;;;;;;;;10298840;28;20539;-72
2023/05/05 15:45:11;;;;;;;9.55;8.43;;;;;;;;;;10300263;28;20084;-72
2023/05/05 15:50:10;;;;;;;10.50;6.68;;;;;;;;;;10301447;28;20480;-72
2023/05/05 15:55:09;;;;;;;9.13;6.93;;;;;;;;;;10300737;28;20079;-72
2023/05/05 16:00:08;;;;;;;13.43;7.45;;;;;;;;;;10300012;28;20123;-72
2023/05/05 16:05:09;;;;;;;10.15;6.28;;;;;;;;;;10299508;28;20517;-71
2023/05/05 16:10:08;;;;;;;6.90;5.75;;;;;;;;;;10302413;28;20083;-71
2023/05/05 16:15:12;;;;;;;9.48;6.15;;;;;;;;;;10295828;28;20041;-73
2023/05/05 16:20:12;;;;;;;7.87;5.67;;;;;;;;;;10298925;28;20091;-73
2023/05/05 16:25:16;;;;;;;10.52;5.95;;;;;;;;;;10298989;28;20337;-72
2023/05/05 16:30:15;;;;;;;9.57;5.72;;;;;;;;;;10305815;28;20475;-72
2023/05/05 16:35:21;;;;;;;9.80;8.32;;;;;;;;;;10296965;28;20036;-73
2023/05/05 16:40:20;;;;;;;31.45;28.10;;;;;;;;;;10297470;28;20076;-72
2023/05/05 16:45:19;;;;;;;9.38;7.43;;;;;;;;;;10298883;28;20037;-71
2023/05/05 16:50:19;;;;;;;24.38;19.25;;;;;;;;;;10300613;28;20072;-72
2023/05/05 16:55:18;;;;;;;10.93;9.38;;;;;;;;;;10300105;28;20063;-69
2023/05/05 17:00:16;;;;;;;9.43;7.13;;;;;;;;;;10299193;28;20493;-70
2023/05/05 17:05:16;;;;;;;20.52;14.90;;;;;;;;;;10298757;28;20482;-70
2023/05/05 17:10:16;;;;;;;22.35;19.70;;;;;;;;;;10291229;28;20544;-71
2023/05/05 17:15:17;;;;;;;58.30;45.58;;;;;;;;;;10296712;28;20063;-69
2023/05/05 17:20:15;;;;;;;52.90;46.83;;;;;;;;;;10297833;28;20093;-71
2023/05/05 17:25:15;;;;;;;29.40;24.58;;;;;;;;;;10296916;28;20119;-70
2023/05/05 17:30:15;;;;;;;18.23;14.00;;;;;;;;;;10298125;28;20499;-70
2023/05/05 17:35:13;;;;;;;15.45;9.20;;;;;;;;;;10296170;28;20084;-71
2023/05/05 17:40:14;;;;;;;10.88;9.48;;;;;;;;;;10296065;28;20633;-71
2023/05/05 17:45:12;;;;;;;10.70;8.68;;;;;;;;;;10297062;28;20072;-69
2023/05/05 17:50:12;;;;;;;18.23;10.75;;;;;;;;;;10297309;28;20072;-69
2023/05/05 17:55:11;;;;;;;16.75;14.80;;;;;;;;;;10298420;28;20542;-70
2023/05/05 18:00:10;;;;;;;20.63;18.38;;;;;;;;;;10298706;28;20159;-71
2023/05/05 18:05:14;;;;;;;20.58;13.90;;;;;;;;;;10299455;28;20087;-71
2023/05/05 18:10:12;;;;;;;13.18;11.85;;;;;;;;;;10298361;28;20079;-70
2023/05/05 18:15:15;;;;;;;24.73;20.73;;;;;;;;;;10297139;28;20064;-70
2023/05/05 18:20:14;;;;;;;14.80;12.30;;;;;;;;;;10291494;28;20099;-71
2023/05/05 18:25:13;;;;;;;9.93;8.57;;;;;;;;;;10295620;28;20140;-70
2023/05/05 18:30:13;;;;;;;12.80;10.85;;;;;;;;;;10295306;28;20086;-71
2023/05/05 18:35:14;;;;;;;16.85;14.23;;;;;;;;;;10295800;28;20092;-71
2023/05/05 18:40:14;;;;;;;15.25;12.32;;;;;;;;;;10304173;28;20240;-71
2023/05/05 18:45:12;;;;;;;15.82;8.13;;;;;;;;;;10296550;28;20064;-71
2023/05/05 18:50:11;;;;;;;11.25;7.95;;;;;;;;;;10306303;28;20537;-72
2023/05/05 18:55:13;;;;;;;10.90;8.23;;;;;;;;;;10301797;28;20068;-72
2023/05/05 19:00:14;;;;;;;16.23;11.65;;;;;;;;;;10297299;28;20068;-72
2023/05/05 19:05:12;;;;;;;23.23;14.73;;;;;;;;;;10304764;28;20106;-71
2023/05/05 19:10:11;;;;;;;24.25;13.77;;;;;;;;;;10303260;28;20072;-71
2023/05/05 19:15:09;;;;;;;25.05;17.60;;;;;;;;;;10304615;28;20091;-71
2023/05/05 19:20:12;;;;;;;32.85;18.50;;;;;;;;;;10300869;28;20095;-72
2023/05/05 19:25:13;;;;;;;32.88;20.77;;;;;;;;;;10306824;28;20073;-72
2023/05/05 19:30:11;;;;;;;26.38;16.38;;;;;;;;;;10302441;28;20045;-70
2023/05/05 19:35:11;;;;;;;14.95;10.25;;;;;;;;;;10300719;28;20502;-71
2023/05/05 19:40:11;;;;;;;16.88;12.35;;;;;;;;;;10301916;28;20087;-71
2023/05/05 19:45:13;;;;;;;12.77;9.30;;;;;;;;;;10300889;28;20096;-72
2023/05/05 19:50:29;;;;;;;8.77;7.20;;;;;;;;;;10302409;28;20079;-70
2023/05/05 19:55:29;;;;;;;9.15;7.80;;;;;;;;;;10295356;28;20509;-72
2023/05/05 20:00:27;;;;;;;13.30;8.43;;;;;;;;;;10299043;28;20068;-72
2023/05/05 20:05:26;;;;;;;9.82;7.80;;;;;;;;;;10299128;28;20072;-71
2023/05/05 20:10:25;;;;;;;9.80;6.10;;;;;;;;;;10301984;28;20079;-73
2023/05/05 20:15:25;;;;;;;6.53;5.78;;;;;;;;;;10303645;28;20072;-71
2023/05/05 20:20:24;;;;;;;9.50;6.45;;;;;;;;;;10297413;28;20080;-72
2023/05/05 20:25:22;;;;;;;8.40;6.93;;;;;;;;;;10301049;28;20069;-71
2023/05/05 20:30:20;;;;;;;7.65;6.38;;;;;;;;;;10299585;28;20064;-71
2023/05/05 20:35:20;;;;;;;10.45;6.55;;;;;;;;;;10298693;28;20075;-73
2023/05/05 20:40:18;;;;;;;8.48;6.57;;;;;;;;;;10299405;28;20076;-73
2023/05/05 20:45:16;;;;;;;10.02;6.70;;;;;;;;;;10298208;28;20517;-72
2023/05/05 20:50:15;;;;;;;7.90;5.43;;;;;;;;;;10299111;28;20068;-72
2023/05/05 20:55:15;;;;;;;8.45;7.55;;;;;;;;;;10290539;28;20135;-72
2023/05/05 21:00:13;;;;;;;11.57;6.70;;;;;;;;;;10299663;28;20084;-72
2023/05/05 21:05:11;;;;;;;9.52;6.93;;;;;;;;;;10296993;28;20110;-72
2023/05/05 21:10:09;;;;;;;9.95;8.30;;;;;;;;;;10297365;28;20072;-72
2023/05/05 21:15:10;;;;;;;11.57;8.55;;;;;;;;;;10297355;28;20076;-72
2023/05/05 21:20:09;;;;;;;12.02;8.43;;;;;;;;;;10291474;28;20489;-73
2023/05/05 21:25:12;;;;;;;12.82;7.78;;;;;;;;;;10297356;28;20073;-71
2023/05/05 21:30:12;;;;;;;8.55;7.18;;;;;;;;;;10295632;28;20072;-72
2023/05/05 21:35:11;;;;;;;11.48;7.95;;;;;;;;;;10297352;28;20124;-72
2023/05/05 21:40:12;;;;;;;10.73;8.10;;;;;;;;;;10294503;28;20076;-72
2023/05/05 21:45:12;;;;;;;14.68;8.57;;;;;;;;;;10296619;28;20072;-72
2023/05/05 21:50:11;;;;;;;14.15;10.95;;;;;;;;;;10296912;28;20068;-72
2023/05/05 21:55:10;;;;;;;14.18;11.00;;;;;;;;;;10296416;28;20494;-72
2023/05/05 22:00:08;;;;;;;15.27;12.50;;;;;;;;;;10294049;28;20098;-72
2023/05/05 22:05:11;;;;;;;17.25;12.32;;;;;;;;;;10299907;28;20446;-73
2023/05/05 22:10:10;;;;;;;16.88;11.38;;;;;;;;;;10292445;28;20067;-72
2023/05/05 22:15:09;;;;;;;18.05;12.27;;;;;;;;;;10298149;28;20072;-73
2023/05/05 22:20:08;;;;;;;17.80;12.43;;;;;;;;;;10294900;28;20485;-73
2023/05/05 22:25:09;;;;;;;21.33;16.42;;;;;;;;;;10303553;28;20072;-72
2023/05/05 22:30:08;;;;;;;24.73;14.85;;;;;;;;;;10303996;28;20072;-73
2023/05/05 22:35:07;;;;;;;18.23;12.52;;;;;;;;;;10316952;28;20044;-73
2023/05/05 22:40:08;;;;;;;17.10;12.85;;;;;;;;;;10303014;28;20084;-72
2023/05/05 22:45:08;;;;;;;16.23;13.77;;;;;;;;;;10303424;28;20079;-73
2023/05/05 22:50:08;;;;;;;40.30;26.40;;;;;;;;;;10302856;28;20080;-73
2023/05/05 22:55:06;;;;;;;31.80;20.73;;;;;;;;;;10304663;28;20520;-72
2023/05/05 23:00:06;;;;;;;19.45;14.15;;;;;;;;;;10304946;28;20087;-73
2023/05/05 23:05:06;;;;;;;16.52;11.95;;;;;;;;;;10295774;28;20075;-73
2023/05/05 23:10:05;;;;;;;22.67;13.70;;;;;;;;;;10302346;28;20464;-74
2023/05/05 23:15:04;;;;;;;25.98;18.27;;;;;;;;;;10302163;28;20490;-73
2023/05/05 23:20:04;;;;;;;28.25;18.45;;;;;;;;;;10301844;28;20106;-73
2023/05/05 23:25:04;;;;;;;21.10;13.80;;;;;;;;;;10296807;28;20060;-73
2023/05/05 23:30:02;;;;;;;18.58;13.35;;;;;;;;;;10300010;28;20071;-71
2023/05/05 23:35:00;;;;;;;15.52;11.85;;;;;;;;;;10301035;28;20072;-73
2023/05/05 23:40:02;;;;;;;13.27;11.40;;;;;;;;;;10298257;28;20075;-72
2023/05/05 23:45:01;;;;;;;15.82;11.27;;;;;;;;;;10304915;28;20075;-72
2023/05/05 23:50:00;;;;;;;17.42;14.52;;;;;;;;;;10301199;28;20079;-72
2023/05/05 23:54:58;;;;;;;14.68;12.25;;;;;;;;;;10300517;28;20080;-72
2023/05/05 23:59:56;;;;;;;15.20;12.63;;;;;;;;;;10300618;28;20103;-71
